Time;durP1;ratioP1;P1;durP2;ratioP2;P2;SDS_P1;SDS_P2;PMS_P1;PMS_P2;Temp;Humidity;BMP_temperature;BMP_pressure;BME280_temperature;BME280_humidity;BME280_pressure;Samples;Min_cycle;Max_cycle;Signal;HPM_P1;HPM_P2
2023/06/10 00:00:14;;;;;;;11.07;6.70;;;;;;;20.66;89.91;101326.66;5175630;27;20489;-53
2023/06/10 00:02:43;;;;;;;9.95;7.15;;;;;;;20.67;90.14;101336.34;5174582;27;20043;-63
2023/06/10 00:05:12;;;;;;;11.35;7.40;;;;;;;20.57;91.07;101331.09;5154898;27;20046;-64
2023/06/10 00:07:41;;;;;;;8.52;6.15;;;;;;;20.61;91.03;101331.63;5177660;27;20042;-63
2023/06/10 00:10:10;;;;;;;10.45;7.18;;;;;;;20.56;90.86;101337.44;5177186;27;20050;-64
2023/06/10 00:12:41;;;;;;;9.38;6.53;;;;;;;20.51;91.96;101336.22;5173517;27;20038;-65
2023/06/10 00:15:11;;;;;;;8.48;6.43;;;;;;;20.48;92.18;101334.69;5174810;27;20042;-64
2023/06/10 00:17:40;;;;;;;8.93;6.78;;;;;;;20.44;92.38;101339.50;5174673;27;20125;-63
2023/06/10 00:20:11;;;;;;;10.75;6.57;;;;;;;20.41;92.54;101336.28;5174552;27;20050;-63
2023/06/10 00:22:41;;;;;;;10.45;6.82;;;;;;;20.39;92.18;101344.44;5177359;27;20034;-64
2023/06/10 00:25:10;;;;;;;11.10;6.28;;;;;;;20.53;92.00;101342.22;5175380;27;20075;-64
2023/06/10 00:27:40;;;;;;;10.80;6.82;;;;;;;20.39;91.84;101339.09;5172379;27;20062;-64
2023/06/10 00:30:10;;;;;;;10.38;6.75;;;;;;;20.36;91.44;101331.41;5174518;27;20038;-65
2023/06/10 00:32:38;;;;;;;10.30;6.80;;;;;;;20.29;91.36;101337.50;5174553;27;20594;-63
2023/06/10 00:35:08;;;;;;;11.63;6.47;;;;;;;20.27;91.03;101340.31;5177686;27;20047;-63
2023/06/10 00:37:37;;;;;;;9.32;6.70;;;;;;;20.28;90.57;101339.34;5177761;27;20107;-64
2023/06/10 00:40:08;;;;;;;10.13;6.60;;;;;;;20.27;90.59;101338.50;5177292;27;20046;-64
2023/06/10 00:42:36;;;;;;;9.75;6.40;;;;;;;20.17;91.00;101343.06;5177175;27;20034;-64
2023/06/10 00:45:07;;;;;;;10.80;6.63;;;;;;;20.09;91.34;101338.47;5174914;27;20552;-63
2023/06/10 00:47:37;;;;;;;11.57;6.30;;;;;;;20.06;90.81;101341.44;5175265;27;20073;-64
2023/06/10 00:50:07;;;;;;;10.60;6.28;;;;;;;20.02;90.60;101345.41;5177599;27;20049;-57
2023/06/10 00:52:36;;;;;;;10.93;6.50;;;;;;;20.02;90.31;101347.25;5174501;27;20049;-54
2023/06/10 00:55:05;;;;;;;8.45;6.18;;;;;;;19.97;90.02;101344.19;5154543;27;20516;-53
2023/06/10 00:57:34;;;;;;;11.07;6.60;;;;;;;19.92;89.68;101345.47;5176638;27;20090;-65
2023/06/10 01:00:02;;;;;;;10.25;6.57;;;;;;;19.99;89.67;101352.84;5175983;27;20052;-63
2023/06/10 01:02:32;;;;;;;10.65;6.50;;;;;;;19.88;89.14;101348.59;5172964;27;20046;-64
2023/06/10 01:05:03;;;;;;;9.38;6.25;;;;;;;19.89;88.47;101343.09;5172810;27;20050;-64
2023/06/10 01:07:39;;;;;;;8.77;6.03;;;;;;;19.84;88.22;101344.53;5154507;27;20049;-63
2023/06/10 01:10:12;;;;;;;9.30;6.10;;;;;;;19.85;87.55;101346.19;5173214;27;20106;-65
2023/06/10 01:12:48;;;;;;;11.02;6.32;;;;;;;19.74;87.43;101345.41;5176678;27;20049;-64
2023/06/10 01:15:17;;;;;;;9.77;6.40;;;;;;;19.75;87.42;101335.56;5177077;27;20043;-65
2023/06/10 01:18:01;;;;;;;9.73;6.03;;;;;;;19.71;87.56;101343.00;5176518;27;20038;-65
2023/06/10 01:20:31;;;;;;;8.93;5.90;;;;;;;19.62;86.84;101346.56;5172632;27;20098;-63
2023/06/10 01:23:02;;;;;;;9.70;6.03;;;;;;;19.65;87.26;101342.78;5173267;27;20456;-63
2023/06/10 01:25:32;;;;;;;8.50;5.25;;;;;;;19.67;86.68;101349.63;5172445;27;20054;-65
2023/06/10 01:28:06;;;;;;;11.57;6.10;;;;;;;19.63;86.85;101350.06;5155344;27;20050;-65
2023/06/10 01:30:41;;;;;;;10.80;6.05;;;;;;;19.55;86.93;101350.78;5176204;27;20136;-64
2023/06/10 01:33:11;;;;;;;10.70;5.60;;;;;;;19.52;86.69;101351.09;5176621;27;20081;-65
2023/06/10 01:35:42;;;;;;;10.15;5.55;;;;;;;19.44;86.90;101346.50;5176799;27;20049;-64
2023/06/10 01:38:13;;;;;;;8.57;5.82;;;;;;;19.37;87.58;101354.25;5174265;27;20046;-64
2023/06/10 01:40:43;;;;;;;8.75;5.70;;;;;;;19.35;87.16;101350.06;5172638;27;20084;-65
2023/06/10 01:43:11;;;;;;;8.82;5.68;;;;;;;19.28;87.22;101354.25;5174995;27;20453;-64
2023/06/10 01:45:39;;;;;;;8.35;5.18;;;;;;;19.30;87.17;101357.63;5173421;27;20053;-53
2023/06/10 01:48:08;;;;;;;8.85;5.65;;;;;;;19.25;87.08;101366.91;5172946;27;20120;-54
2023/06/10 01:50:36;;;;;;;9.43;5.80;;;;;;;19.19;86.89;101353.31;5174061;27;20042;-54
2023/06/10 01:53:05;;;;;;;9.93;5.32;;;;;;;19.21;86.95;101356.66;5154851;27;20046;-55
2023/06/10 01:55:34;;;;;;;8.98;5.70;;;;;;;19.21;87.11;101362.84;5172592;27;20053;-65
2023/06/10 01:58:02;;;;;;;10.93;5.57;;;;;;;19.13;87.15;101359.22;5171762;27;20052;-55
2023/06/10 02:00:31;;;;;;;8.38;5.00;;;;;;;19.07;88.30;101357.97;5174357;27;20711;-64
2023/06/10 02:02:59;;;;;;;9.68;5.47;;;;;;;19.06;87.44;101356.28;5172825;27;20496;-65
2023/06/10 02:05:30;;;;;;;9.95;5.57;;;;;;;18.98;88.05;101358.81;5171412;27;20046;-54
2023/06/10 02:07:58;;;;;;;11.50;5.93;;;;;;;18.98;88.25;101362.34;5174937;27;20042;-54
2023/06/10 02:10:29;;;;;;;9.30;5.45;;;;;;;18.89;88.96;101364.00;5175669;27;20045;-55
2023/06/10 02:12:59;;;;;;;8.60;5.38;;;;;;;18.85;88.76;101359.09;5175785;27;20488;-52
2023/06/10 02:15:27;;;;;;;10.30;5.60;;;;;;;18.81;89.17;101350.53;5175556;27;20042;-55
2023/06/10 02:17:56;;;;;;;9.10;5.10;;;;;;;18.78;90.00;101361.47;5173716;27;20042;-54
2023/06/10 02:20:24;;;;;;;9.65;5.45;;;;;;;18.72;90.61;101368.22;5171057;27;20038;-54
2023/06/10 02:22:52;;;;;;;11.00;5.68;;;;;;;18.69;91.57;101365.84;5174926;27;20094;-54
2023/06/10 02:25:21;;;;;;;7.90;5.03;;;;;;;18.67;91.73;101361.63;5174365;27;20046;-53
2023/06/10 02:27:49;;;;;;;10.68;5.90;;;;;;;18.65;92.16;101367.09;5170924;27;20475;-54
2023/06/10 02:30:19;;;;;;;10.32;5.32;;;;;;;18.61;93.00;101362.16;5171789;27;20125;-54
2023/06/10 02:32:47;;;;;;;9.60;5.13;;;;;;;18.63;93.42;101365.56;5172236;27;20046;-54
2023/06/10 02:35:17;;;;;;;9.63;5.18;;;;;;;18.61;94.17;101367.50;5171050;27;20081;-53
2023/06/10 02:37:45;;;;;;;9.52;5.20;;;;;;;18.62;94.21;101363.88;5172926;27;20098;-54
2023/06/10 02:40:13;;;;;;;11.93;5.47;;;;;;;18.59;94.87;101370.31;5174928;27;20058;-54
2023/06/10 02:42:43;;;;;;;8.65;4.63;;;;;;;18.59;95.43;101378.31;5156612;27;20561;-65
2023/06/10 02:45:11;;;;;;;9.63;5.45;;;;;;;18.51;95.95;101372.81;5175115;27;20042;-52
2023/06/10 02:47:41;;;;;;;10.40;5.50;;;;;;;18.50;96.03;101374.66;5172063;27;20094;-54
2023/06/10 02:50:10;;;;;;;10.90;5.32;;;;;;;18.44;96.76;101369.88;5171376;27;20492;-54
2023/06/10 02:52:38;;;;;;;10.02;5.47;;;;;;;18.48;96.84;101373.13;5171887;27;20117;-54
2023/06/10 02:55:06;;;;;;;10.68;6.00;;;;;;;18.44;97.39;101366.38;5173420;27;20045;-54
2023/06/10 02:57:35;;;;;;;12.35;5.43;;;;;;;18.38;98.07;101373.94;5175001;27;20038;-52
2023/06/10 03:00:09;;;;;;;10.27;4.97;;;;;;;18.35;98.69;101370.69;5172383;27;20504;-54
2023/06/10 03:02:38;;;;;;;13.50;5.25;;;;;;;18.30;99.43;101371.13;5171791;27;20524;-64
2023/06/10 03:05:09;;;;;;;11.90;5.47;;;;;;;18.31;99.90;101375.47;5153410;27;20118;-65
2023/06/10 03:07:39;;;;;;;10.13;5.78;;;;;;;18.31;100.00;101370.16;5175058;27;20046;-64
2023/06/10 03:10:08;;;;;;;11.48;5.90;;;;;;;18.25;100.00;101373.34;5175148;27;20065;-63
2023/06/10 03:12:36;;;;;;;11.00;5.82;;;;;;;18.18;100.00;101377.56;5174775;27;20052;-64
2023/06/10 03:15:05;;;;;;;9.82;5.47;;;;;;;18.14;100.00;101382.28;5174827;27;20037;-64
2023/06/10 03:17:34;;;;;;;11.45;5.63;;;;;;;18.13;100.00;101374.44;5174787;27;20038;-64
2023/06/10 03:20:05;;;;;;;9.73;5.53;;;;;;;18.15;100.00;101378.66;5155841;27;20106;-65
2023/06/10 03:22:34;;;;;;;11.57;5.50;;;;;;;18.05;100.00;101375.97;5155771;27;20416;-64
2023/06/10 03:25:03;;;;;;;14.57;5.93;;;;;;;18.06;100.00;101380.34;5174542;27;20046;-64
2023/06/10 03:27:31;;;;;;;13.35;5.50;;;;;;;18.03;100.00;101375.25;5174722;27;20118;-65
2023/06/10 03:29:59;;;;;;;9.55;5.60;;;;;;;17.97;100.00;101375.81;5174590;27;20074;-64
2023/06/10 03:32:30;;;;;;;10.75;5.55;;;;;;;17.93;100.00;101382.38;5176083;27;20038;-65
2023/06/10 03:34:58;;;;;;;10.48;5.68;;;;;;;17.89;100.00;101378.28;5178849;27;20408;-64
2023/06/10 03:37:26;;;;;;;11.55;5.60;;;;;;;17.88;100.00;101382.75;5178645;27;20129;-65
2023/06/10 03:39:56;;;;;;;12.02;5.68;;;;;;;17.89;100.00;101386.28;5178593;27;20512;-65
2023/06/10 03:42:24;;;;;;;9.40;5.10;;;;;;;17.87;100.00;101386.41;5177233;27;20054;-64
2023/06/10 03:44:53;;;;;;;10.55;5.50;;;;;;;17.86;100.00;101383.84;5175371;27;20099;-64
2023/06/10 03:47:23;;;;;;;9.05;5.70;;;;;;;17.84;100.00;101391.16;5176834;27;20046;-64
2023/06/10 03:49:52;;;;;;;16.75;5.78;;;;;;;17.82;100.00;101393.06;5177769;27;20466;-64
2023/06/10 03:52:20;;;;;;;12.98;5.53;;;;;;;17.79;100.00;101388.03;5159073;27;20038;-65
2023/06/10 03:54:48;;;;;;;8.95;5.47;;;;;;;17.81;100.00;101394.06;5159295;27;20042;-65
2023/06/10 03:57:20;;;;;;;10.65;5.25;;;;;;;17.78;100.00;101397.84;5178110;27;20050;-64
2023/06/10 03:59:49;;;;;;;11.10;5.25;;;;;;;17.79;100.00;101388.03;5177984;27;20385;-65
2023/06/10 04:02:17;;;;;;;11.95;5.45;;;;;;;17.78;100.00;101392.53;5178306;27;20077;-64
2023/06/10 04:04:46;;;;;;;9.77;5.28;;;;;;;17.73;100.00;101397.41;5158778;27;20381;-65
2023/06/10 04:07:14;;;;;;;12.65;5.93;;;;;;;17.72;100.00;101396.56;5155608;27;20145;-64
2023/06/10 04:09:43;;;;;;;9.70;5.32;;;;;;;17.71;100.00;101394.88;5175376;27;20038;-65
2023/06/10 04:12:11;;;;;;;10.88;5.85;;;;;;;17.77;100.00;101403.31;5174935;27;20099;-64
2023/06/10 04:14:41;;;;;;;10.30;5.85;;;;;;;17.72;100.00;101399.22;5156884;27;20057;-64
2023/06/10 04:17:09;;;;;;;10.55;6.28;;;;;;;17.71;100.00;101402.84;5176697;27;20049;-63
2023/06/10 04:19:38;;;;;;;10.52;5.60;;;;;;;17.71;100.00;101391.34;5177870;27;20042;-65
2023/06/10 04:22:07;;;;;;;9.65;5.55;;;;;;;17.69;100.00;101402.13;5177984;27;20044;-65
2023/06/10 04:24:35;;;;;;;12.90;5.55;;;;;;;17.69;100.00;101404.78;5177646;27;20034;-64
2023/06/10 04:27:04;;;;;;;10.00;5.53;;;;;;;17.71;100.00;101408.16;5177678;27;20050;-67
2023/06/10 04:29:32;;;;;;;9.40;5.47;;;;;;;17.70;100.00;101403.81;5177696;27;20053;-65
2023/06/10 04:32:01;;;;;;;12.73;5.90;;;;;;;17.71;100.00;101416.16;5174400;27;20357;-64
2023/06/10 04:34:30;;;;;;;9.13;5.70;;;;;;;17.71;100.00;101408.16;5174649;27;20062;-66
2023/06/10 04:36:58;;;;;;;11.02;5.88;;;;;;;17.69;100.00;101412.78;5177714;27;20046;-64
2023/06/10 04:39:27;;;;;;;10.00;6.05;;;;;;;17.71;100.00;101420.59;5177225;27;20058;-54
2023/06/10 04:41:56;;;;;;;12.55;5.72;;;;;;;17.71;100.00;101423.28;5177101;27;20595;-63
2023/06/10 04:44:24;;;;;;;11.10;6.07;;;;;;;17.68;100.00;101426.19;5175988;27;20049;-65
2023/06/10 04:46:52;;;;;;;11.05;6.30;;;;;;;17.71;100.00;101413.50;5174452;27;20046;-64
2023/06/10 04:49:22;;;;;;;9.70;5.88;;;;;;;17.78;100.00;101419.13;5173161;27;20042;-65
2023/06/10 04:51:51;;;;;;;12.00;6.00;;;;;;;17.83;100.00;101418.72;5175353;27;20046;-54
2023/06/10 04:54:19;;;;;;;10.95;5.97;;;;;;;17.87;100.00;101420.13;5177106;27;20493;-54
2023/06/10 04:56:47;;;;;;;10.50;5.95;;;;;;;17.92;100.00;101427.75;5172417;27;20054;-54
2023/06/10 04:59:15;;;;;;;12.57;6.13;;;;;;;17.91;100.00;101416.22;5173464;27;20050;-64
2023/06/10 05:01:44;;;;;;;11.18;6.45;;;;;;;17.98;100.00;101430.69;5173842;27;20052;-64
2023/06/10 05:04:12;;;;;;;11.48;5.97;;;;;;;17.99;100.00;101431.56;5173045;27;20042;-64
2023/06/10 05:06:41;;;;;;;11.70;5.97;;;;;;;18.05;100.00;101431.00;5175693;27;20129;-64
2023/06/10 05:09:12;;;;;;;11.68;6.43;;;;;;;18.05;100.00;101431.88;5176678;27;20438;-64
2023/06/10 05:11:40;;;;;;;9.82;5.95;;;;;;;18.16;100.00;101433.59;5176076;27;20434;-65
2023/06/10 05:14:08;;;;;;;12.85;5.55;;;;;;;18.20;100.00;101429.69;5176376;27;20050;-65
2023/06/10 05:16:36;;;;;;;12.07;6.28;;;;;;;18.23;100.00;101423.25;5176299;27;20497;-65
2023/06/10 05:19:04;;;;;;;11.95;6.50;;;;;;;18.28;100.00;101428.97;5174204;27;20059;-55
2023/06/10 05:21:35;;;;;;;12.20;5.63;;;;;;;18.37;100.00;101424.66;5172613;27;20042;-54
2023/06/10 05:24:08;;;;;;;10.45;6.40;;;;;;;18.45;100.00;101423.97;5154444;27;20034;-55
2023/06/10 05:26:37;;;;;;;9.90;5.78;;;;;;;18.52;100.00;101431.28;5153938;27;20042;-55
2023/06/10 05:29:06;;;;;;;9.77;5.93;;;;;;;18.58;100.00;101430.75;5176419;27;20038;-55
2023/06/10 05:31:34;;;;;;;9.88;5.43;;;;;;;18.66;100.00;101429.19;5176268;27;20045;-54
2023/06/10 05:34:03;;;;;;;11.10;5.82;;;;;;;18.71;100.00;101435.78;5174068;27;20050;-53
2023/06/10 05:36:32;;;;;;;11.32;6.55;;;;;;;18.82;100.00;101429.47;5153335;27;20034;-55
2023/06/10 05:39:00;;;;;;;11.95;5.93;;;;;;;18.89;100.00;101429.81;5172991;27;20102;-55
2023/06/10 05:41:30;;;;;;;10.77;5.65;;;;;;;18.96;100.00;101435.41;5170699;27;20054;-54
2023/06/10 05:44:01;;;;;;;10.43;6.05;;;;;;;19.03;100.00;101437.38;5172806;27;20038;-55
2023/06/10 05:46:30;;;;;;;12.23;5.85;;;;;;;19.17;100.00;101437.91;5172414;27;20108;-53
2023/06/10 05:48:58;;;;;;;11.10;6.25;;;;;;;19.22;100.00;101433.00;5156581;27;20042;-55
2023/06/10 05:51:27;;;;;;;10.82;6.03;;;;;;;19.30;100.00;101441.13;5174930;27;20053;-56
2023/06/10 05:53:55;;;;;;;11.15;5.90;;;;;;;19.37;100.00;101439.59;5172225;27;20050;-55
2023/06/10 05:56:25;;;;;;;10.25;5.50;;;;;;;19.45;100.00;101438.84;5170057;27;20114;-54
2023/06/10 05:58:55;;;;;;;10.10;6.35;;;;;;;19.58;100.00;101438.56;5174086;27;20396;-54
2023/06/10 06:01:23;;;;;;;9.57;5.75;;;;;;;19.64;100.00;101439.81;5172748;27;20042;-56
2023/06/10 06:03:51;;;;;;;11.38;6.40;;;;;;;19.71;100.00;101435.56;5172228;27;20651;-55
2023/06/10 06:06:20;;;;;;;10.25;6.40;;;;;;;19.75;100.00;101437.78;5173037;27;20034;-55
2023/06/10 06:08:48;;;;;;;12.13;6.05;;;;;;;19.84;100.00;101440.63;5175931;27;20039;-63
2023/06/10 06:11:16;;;;;;;12.50;6.03;;;;;;;19.92;100.00;101440.72;5175626;27;20056;-63
2023/06/10 06:13:45;;;;;;;11.43;6.05;;;;;;;19.98;100.00;101431.28;5172824;27;20034;-54
2023/06/10 06:16:15;;;;;;;10.10;6.75;;;;;;;20.09;100.00;101433.75;5171643;27;20046;-55
2023/06/10 06:18:43;;;;;;;11.80;6.40;;;;;;;20.19;100.00;101439.03;5171486;27;20049;-65
2023/06/10 06:21:11;;;;;;;11.43;6.05;;;;;;;20.29;100.00;101441.63;5171603;27;20049;-66
2023/06/10 06:23:40;;;;;;;14.10;6.32;;;;;;;20.40;100.00;101436.13;5171639;27;20069;-65
2023/06/10 06:26:08;;;;;;;9.73;6.22;;;;;;;20.46;100.00;101437.34;5170837;27;20149;-66
2023/06/10 06:28:36;;;;;;;11.82;6.30;;;;;;;20.53;100.00;101435.72;5171068;27;20393;-53
2023/06/10 06:31:08;;;;;;;12.50;6.57;;;;;;;20.63;99.02;101430.31;5156515;27;20070;-65
2023/06/10 06:33:37;;;;;;;11.13;6.25;;;;;;;20.77;98.25;101432.50;5174987;27;20506;-62
2023/06/10 06:36:06;;;;;;;13.48;7.47;;;;;;;20.87;98.13;101438.59;5173781;27;20038;-65
2023/06/10 06:38:37;;;;;;;15.20;7.50;;;;;;;21.01;99.44;101444.41;5172124;27;20052;-65
2023/06/10 06:41:06;;;;;;;15.15;8.65;;;;;;;21.17;95.52;101441.03;5170183;27;20049;-63
2023/06/10 06:43:35;;;;;;;11.80;7.57;;;;;;;21.23;94.76;101440.41;5171409;27;20102;-63
2023/06/10 06:46:03;;;;;;;10.63;6.45;;;;;;;21.33;92.09;101443.81;5172387;27;20038;-63
2023/06/10 06:48:31;;;;;;;9.63;5.57;;;;;;;21.39;90.79;101443.22;5172686;27;20129;-64
2023/06/10 06:51:01;;;;;;;10.70;5.90;;;;;;;21.50;92.07;101449.28;5171866;27;20041;-64
2023/06/10 06:53:29;;;;;;;10.45;5.72;;;;;;;21.59;89.92;101440.34;5171034;27;20093;-63
2023/06/10 06:56:00;;;;;;;12.15;6.30;;;;;;;21.70;88.08;101442.75;5171159;27;20087;-64
2023/06/10 06:58:28;;;;;;;14.25;5.72;;;;;;;21.68;90.25;101447.44;5152107;27;20411;-63
2023/06/10 07:00:56;;;;;;;9.10;5.38;;;;;;;21.83;88.55;101441.47;5171755;27;20081;-63
2023/06/10 07:03:24;;;;;;;11.18;5.45;;;;;;;21.94;85.97;101452.75;5173562;27;20473;-63
2023/06/10 07:05:53;;;;;;;11.70;5.80;;;;;;;22.10;88.13;101457.34;5171960;27;20039;-63
2023/06/10 07:08:22;;;;;;;10.77;5.50;;;;;;;22.19;86.13;101452.84;5173972;27;20050;-63
2023/06/10 07:10:50;;;;;;;9.15;5.80;;;;;;;22.32;84.60;101454.22;5175054;27;20496;-56
2023/06/10 07:13:18;;;;;;;10.30;5.85;;;;;;;22.43;87.05;101451.28;5174630;27;20053;-57
2023/06/10 07:15:46;;;;;;;9.00;5.53;;;;;;;22.64;86.46;101447.31;5158511;27;20049;-56
2023/06/10 07:18:16;;;;;;;10.25;5.65;;;;;;;22.79;84.88;101453.69;5160290;27;20034;-57
2023/06/10 07:20:44;;;;;;;9.65;5.78;;;;;;;22.94;83.19;101453.88;5178752;27;20046;-56
2023/06/10 07:23:12;;;;;;;12.13;5.78;;;;;;;23.06;82.32;101452.53;5177695;27;20476;-56
2023/06/10 07:25:43;;;;;;;10.98;5.18;;;;;;;23.18;81.98;101449.53;5175255;27;20046;-57
2023/06/10 07:28:11;;;;;;;10.80;5.65;;;;;;;23.31;80.00;101462.47;5174342;27;20089;-56
2023/06/10 07:30:39;;;;;;;12.68;5.82;;;;;;;23.42;79.21;101457.59;5175606;27;20042;-57
2023/06/10 07:33:07;;;;;;;9.75;5.07;;;;;;;23.52;79.07;101459.22;5175276;27;20042;-55
2023/06/10 07:35:36;;;;;;;9.93;5.93;;;;;;;23.61;76.77;101460.88;5178199;27;20128;-57
2023/06/10 07:38:04;;;;;;;9.30;5.60;;;;;;;23.56;76.15;101452.50;5175408;27;20061;-55
2023/06/10 07:40:34;;;;;;;10.98;5.30;;;;;;;23.66;75.88;101457.72;5176438;27;20437;-55
2023/06/10 07:43:04;;;;;;;10.13;5.38;;;;;;;23.66;76.28;101463.09;5177872;27;20046;-56
2023/06/10 07:45:32;;;;;;;9.02;5.07;;;;;;;23.77;74.33;101460.03;5178140;27;20038;-56
2023/06/10 07:48:00;;;;;;;9.55;5.63;;;;;;;23.93;73.87;101457.31;5178081;27;20523;-56
2023/06/10 07:50:29;;;;;;;11.05;5.45;;;;;;;24.14;74.35;101456.72;5173802;27;20779;-56
2023/06/10 07:52:57;;;;;;;12.07;6.68;;;;;;;24.39;73.77;101453.91;5157727;27;20054;-57
2023/06/10 07:55:25;;;;;;;9.18;5.43;;;;;;;24.67;74.78;101460.69;5178102;27;20050;-57
2023/06/10 07:57:54;;;;;;;9.95;5.63;;;;;;;24.77;71.76;101463.94;5174736;27;20568;-56
2023/06/10 08:00:26;;;;;;;8.88;5.15;;;;;;;24.88;70.90;101458.16;5174905;27;20443;-57
2023/06/10 08:02:55;;;;;;;12.00;5.40;;;;;;;24.98;71.54;101463.31;5175375;27;20050;-55
2023/06/10 08:05:24;;;;;;;10.57;5.10;;;;;;;25.16;71.99;101465.66;5178047;27;20114;-56
2023/06/10 08:07:52;;;;;;;10.73;6.18;;;;;;;25.36;70.70;101463.34;5176438;27;20388;-56
2023/06/10 08:10:20;;;;;;;10.43;5.40;;;;;;;25.51;68.46;101457.97;5154341;27;20497;-56
2023/06/10 08:12:48;;;;;;;11.75;5.43;;;;;;;25.54;67.09;101456.78;5151712;27;20121;-56
2023/06/10 08:15:16;;;;;;;11.52;5.95;;;;;;;25.72;64.40;101454.53;5154551;27;20083;-55
2023/06/10 08:17:46;;;;;;;11.18;5.38;;;;;;;25.90;63.78;101459.53;5156949;27;20057;-56
2023/06/10 08:20:15;;;;;;;10.30;5.90;;;;;;;25.75;63.24;101456.03;5153830;27;20448;-55
2023/06/10 08:22:43;;;;;;;10.75;5.63;;;;;;;25.99;64.76;101454.91;5153802;27;20046;-62
2023/06/10 08:25:11;;;;;;;10.00;4.90;;;;;;;26.14;64.06;101461.13;5153457;27;20122;-63
2023/06/10 08:27:39;;;;;;;10.05;5.72;;;;;;;26.34;61.74;101457.00;5157092;27;20431;-62
2023/06/10 08:30:10;;;;;;;11.48;5.60;;;;;;;26.44;61.42;101461.06;5156722;27;20121;-65
2023/06/10 08:32:38;;;;;;;10.98;4.97;;;;;;;26.54;60.65;101454.53;5156702;27;20058;-65
2023/06/10 08:35:09;;;;;;;9.93;5.18;;;;;;;26.69;60.93;101457.19;5156765;27;20039;-63
2023/06/10 08:37:37;;;;;;;10.80;5.30;;;;;;;26.81;60.72;101464.59;5154260;27;20050;-61
2023/06/10 08:40:06;;;;;;;10.02;4.78;;;;;;;27.03;57.49;101451.09;5153569;27;20115;-62
2023/06/10 08:42:40;;;;;;;11.10;4.53;;;;;;;27.15;56.55;101454.91;5155294;27;20066;-63
2023/06/10 08:45:12;;;;;;;7.72;4.55;;;;;;;27.30;58.16;101459.41;5153287;27;20069;-63
2023/06/10 08:47:43;;;;;;;;;;;;;;;27.43;57.70;101461.38;5154105;27;20074;-63
2023/06/10 08:50:13;;;;;;;9.23;4.70;;;;;;;27.67;56.45;101455.50;5155242;27;20029;-63
2023/06/10 08:52:44;;;;;;;6.93;4.30;;;;;;;27.82;56.28;101452.69;5156114;27;20051;-62
2023/06/10 08:55:17;;;;;;;8.25;4.40;;;;;;;28.08;52.22;101459.28;5152903;27;20047;-62
2023/06/10 08:57:47;;;;;;;8.57;4.60;;;;;;;28.15;53.78;101457.47;5132998;27;20055;-63
2023/06/10 09:00:17;;;;;;;8.93;4.13;;;;;;;28.34;54.59;101463.13;5152805;27;20046;-64
2023/06/10 09:02:45;;;;;;;10.10;4.53;;;;;;;28.46;52.42;101456.09;5155695;27;20039;-62
2023/06/10 09:05:16;;;;;;;7.85;4.32;;;;;;;28.74;52.07;101452.44;5155341;27;20099;-62
2023/06/10 09:07:47;;;;;;;8.65;4.82;;;;;;;28.87;50.68;101458.91;5152717;27;20049;-56
2023/06/10 09:10:15;;;;;;;9.18;4.55;;;;;;;28.86;46.77;101454.53;5152561;27;20485;-62
2023/06/10 09:12:43;;;;;;;9.20;4.75;;;;;;;29.04;49.07;101449.34;5151034;27;20099;-56
2023/06/10 09:15:12;;;;;;;8.05;4.57;;;;;;;29.09;49.30;101454.94;5152072;27;20035;-58
2023/06/10 09:17:40;;;;;;;12.75;7.07;;;;;;;29.15;50.42;101451.41;5152728;27;20066;-58
2023/06/10 09:20:10;;;;;;;7.57;4.43;;;;;;;29.05;48.83;101458.28;5151438;27;20071;-58
2023/06/10 09:22:39;;;;;;;10.68;6.57;;;;;;;29.33;47.45;101453.50;5153656;27;20474;-57
2023/06/10 09:25:09;;;;;;;12.82;8.85;;;;;;;29.31;45.43;101454.75;5153418;27;20537;-58
2023/06/10 09:27:48;;;;;;;13.70;7.80;;;;;;;29.70;45.01;101457.59;5150977;27;20508;-58
2023/06/10 09:30:27;;;;;;;9.32;5.03;;;;;;;30.00;46.09;101455.22;5151901;27;20085;-61
2023/06/10 09:32:57;;;;;;;11.13;6.65;;;;;;;30.11;46.63;101456.44;5152755;27;20058;-58
2023/06/10 09:35:26;;;;;;;8.82;5.80;;;;;;;30.03;44.92;101454.78;5155360;27;20354;-57
2023/06/10 09:37:57;;;;;;;8.27;4.78;;;;;;;30.14;42.91;101454.09;5155474;27;20042;-63
2023/06/10 09:40:27;;;;;;;7.95;4.60;;;;;;;30.15;42.74;101452.25;5155048;27;20049;-62
2023/06/10 09:42:58;;;;;;;8.13;4.00;;;;;;;30.29;44.10;101450.28;5154174;27;20551;-62
2023/06/10 09:45:31;;;;;;;8.75;4.63;;;;;;;30.39;45.07;101452.53;5151343;27;20099;-62
2023/06/10 09:48:00;;;;;;;8.05;4.55;;;;;;;30.46;42.95;101445.22;5153385;27;20042;-61
2023/06/10 09:50:29;;;;;;;8.82;4.45;;;;;;;30.50;42.59;101450.00;5155082;27;20050;-60
2023/06/10 09:52:58;;;;;;;8.27;4.40;;;;;;;30.89;41.92;101449.09;5154903;27;20469;-62
2023/06/10 09:55:26;;;;;;;10.52;4.70;;;;;;;31.02;40.39;101436.28;5154209;27;20042;-61
2023/06/10 09:57:55;;;;;;;7.63;4.07;;;;;;;31.23;41.48;101445.06;5150020;27;20493;-62
2023/06/10 10:00:25;;;;;;;8.45;4.47;;;;;;;31.34;39.44;101444.31;5151139;27;20053;-62
2023/06/10 10:02:54;;;;;;;6.70;4.10;;;;;;;31.11;39.51;101441.41;5151227;27;20110;-60
2023/06/10 10:05:23;;;;;;;7.90;4.25;;;;;;;31.30;39.73;101434.13;5153778;27;20046;-60
2023/06/10 10:07:52;;;;;;;7.53;4.18;;;;;;;31.57;39.03;101448.28;5136040;27;20513;-60
2023/06/10 10:10:24;;;;;;;7.03;4.18;;;;;;;31.69;38.14;101440.22;5154747;27;20545;-57
2023/06/10 10:12:56;;;;;;;8.73;3.88;;;;;;;31.80;37.10;101442.19;5154623;27;20046;-57
2023/06/10 10:15:29;;;;;;;7.13;4.10;;;;;;;32.04;37.03;101431.41;5154656;27;20042;-57
2023/06/10 10:18:06;;;;;;;7.70;3.70;;;;;;;32.06;36.91;101432.03;5154448;27;20046;-59
2023/06/10 10:20:38;;;;;;;7.32;3.95;;;;;;;32.04;35.79;101434.13;5150698;27;20090;-58
2023/06/10 10:23:09;;;;;;;7.80;3.97;;;;;;;32.15;35.64;101435.28;5151340;27;20103;-59
2023/06/10 10:25:41;;;;;;;8.47;4.00;;;;;;;32.02;35.67;101428.09;5152980;27;20042;-61
2023/06/10 10:28:11;;;;;;;8.23;4.25;;;;;;;32.18;34.14;101432.94;5154377;27;20133;-61
2023/06/10 10:30:41;;;;;;;8.10;4.40;;;;;;;32.27;34.90;101427.16;5154342;27;20493;-61
2023/06/10 10:33:14;;;;;;;6.40;3.95;;;;;;;32.43;33.33;101431.13;5154383;27;20051;-57
2023/06/10 10:35:43;;;;;;;6.63;3.72;;;;;;;32.49;33.20;101427.47;5152268;27;20512;-61
2023/06/10 10:38:12;;;;;;;8.18;4.10;;;;;;;32.79;34.73;101426.63;5151460;27;20047;-63
2023/06/10 10:40:43;;;;;;;9.13;3.97;;;;;;;32.91;33.97;101418.47;5153460;27;20058;-62
2023/06/10 10:43:12;;;;;;;7.38;4.18;;;;;;;32.93;33.66;101413.59;5153377;27;20062;-59
2023/06/10 10:45:40;;;;;;;8.70;4.20;;;;;;;33.13;31.82;101418.69;5154094;27;20050;-59
2023/06/10 10:48:11;;;;;;;11.38;5.30;;;;;;;33.03;31.70;101411.94;5154175;27;20047;-57
2023/06/10 10:50:40;;;;;;;7.72;4.50;;;;;;;33.37;29.87;101416.81;5154177;27;20050;-59
2023/06/10 10:53:09;;;;;;;7.00;3.80;;;;;;;33.37;30.63;101411.38;5154159;27;20129;-59
2023/06/10 10:55:37;;;;;;;7.53;4.03;;;;;;;33.34;29.65;101415.41;5154366;27;20057;-60
2023/06/10 10:58:16;;;;;;;8.95;4.22;;;;;;;33.49;29.65;101406.72;5154207;27;20121;-59
2023/06/10 11:00:49;;;;;;;6.63;3.90;;;;;;;33.64;28.14;101413.56;5154058;27;20042;-62
2023/06/10 11:03:18;;;;;;;7.40;3.80;;;;;;;33.66;28.01;101403.25;5154220;27;20071;-61
2023/06/10 11:05:49;;;;;;;6.90;3.38;;;;;;;33.82;27.93;101412.59;5154243;27;20042;-61
2023/06/10 11:08:47;;;;;;;7.35;3.45;;;;;;;33.86;27.76;101411.03;5150579;27;20104;-62
2023/06/10 11:11:22;;;;;;;6.30;3.35;;;;;;;33.74;28.08;101405.59;5149727;27;20046;-63
2023/06/10 11:14:09;;;;;;;8.32;3.90;;;;;;;34.08;28.76;101399.47;5150161;27;20042;-62
2023/06/10 11:16:42;;;;;;;6.90;3.72;;;;;;;34.03;26.56;101398.28;5153048;27;20122;-63
2023/06/10 11:19:10;;;;;;;6.30;3.28;;;;;;;34.38;27.19;101399.19;5150277;27;20070;-61
2023/06/10 11:21:59;;;;;;;6.18;3.63;;;;;;;34.76;27.79;101394.91;5150813;27;20062;-59
2023/06/10 11:24:27;;;;;;;11.40;3.78;;;;;;;34.79;26.06;101393.59;5150095;27;20797;-59
2023/06/10 11:26:56;;;;;;;7.25;3.70;;;;;;;34.44;25.02;101392.78;5149403;27;20043;-59
2023/06/10 11:29:28;;;;;;;9.00;3.90;;;;;;;34.70;24.47;101391.28;5131842;27;20041;-59